Time;durP1;ratioP1;P1;durP2;ratioP2;P2;SDS_P1;SDS_P2;PMS_P1;PMS_P2;Temp;Humidity;BMP_temperature;BMP_pressure;BME280_temperature;BME280_humidity;BME280_pressure;Samples;Min_cycle;Max_cycle;Signal;HPM_P1;HPM_P2
2023/12/10 00:01:49;;;;;;;;;;;7.40;94.00;;;;;;4999357;28;19930;-60
2023/12/10 00:04:22;;;;;;;;;;;7.40;93.90;;;;;;4990099;28;20647;-59
2023/12/10 00:06:55;;;;;;;;;;;7.40;93.90;;;;;;4989054;28;19936;-59
2023/12/10 00:09:28;;;;;;;;;;;7.40;93.90;;;;;;4989652;28;19937;-59
2023/12/10 00:12:03;;;;;;;;;;;7.50;93.90;;;;;;4993418;28;19936;-61
2023/12/10 00:14:36;;;;;;;;;;;7.40;93.80;;;;;;4991212;28;19934;-60
2023/12/10 00:17:09;;;;;;;;;;;7.40;93.70;;;;;;4989790;28;19933;-59
2023/12/10 00:19:36;;;;;;;;;;;7.30;93.70;;;;;;4991251;28;19929;-74
2023/12/10 00:22:09;;;;;;;;;;;7.40;93.70;;;;;;4991347;28;20391;-77
2023/12/10 00:24:49;;;;;;;;;;;7.30;93.70;;;;;;4992449;28;19930;-74
2023/12/10 00:27:24;;;;;;;;;;;7.40;93.70;;;;;;4999514;28;20446;-77
2023/12/10 00:29:57;;;;;;;;;;;7.40;93.70;;;;;;5009248;28;19959;-75
2023/12/10 00:32:30;;;;;;;;;;;7.30;93.60;;;;;;5011017;28;19925;-74
2023/12/10 00:35:04;;;;;;;;;;;7.30;93.50;;;;;;5011244;28;20015;-75
2023/12/10 00:37:37;;;;;;;;;;;7.30;93.50;;;;;;5011352;28;19933;-74
2023/12/10 00:40:11;;;;;;;;;;;7.30;93.50;;;;;;5006954;28;19933;-75
2023/12/10 00:42:46;;;;;;;;;;;7.30;93.50;;;;;;5009402;28;19934;-74
2023/12/10 00:45:19;;;;;;;;;;;7.40;93.40;;;;;;5004439;28;19930;-74
2023/12/10 00:47:52;;;;;;;;;;;7.40;93.40;;;;;;5005808;28;19930;-74
2023/12/10 00:50:25;;;;;;;;;;;7.30;93.40;;;;;;4988764;28;19934;-75
2023/12/10 00:52:58;;;;;;;;;;;7.30;93.30;;;;;;4987664;28;19933;-74
2023/12/10 00:55:31;;;;;;;;;;;7.30;93.30;;;;;;4989496;28;19930;-72
2023/12/10 00:58:06;;;;;;;;;;;7.30;93.20;;;;;;4983601;28;20449;-75
2023/12/10 01:00:40;;;;;;;;;;;7.30;93.20;;;;;;4990860;28;20016;-75
2023/12/10 01:03:13;;;;;;;;;;;7.30;93.20;;;;;;4990625;28;19961;-74
2023/12/10 01:05:46;;;;;;;;;;;7.30;93.20;;;;;;5008536;28;19926;-74
2023/12/10 01:08:19;;;;;;;;;;;7.30;93.10;;;;;;5002552;28;20848;-75
2023/12/10 01:10:52;;;;;;;;;;;7.30;93.10;;;;;;4995805;28;19930;-74
2023/12/10 01:13:27;;;;;;;;;;;7.30;93.10;;;;;;4985139;28;20434;-75
2023/12/10 01:16:00;;;;;;;;;;;7.30;93.00;;;;;;4990691;28;19929;-77
2023/12/10 01:18:34;;;;;;;;;;;7.20;92.90;;;;;;4988688;28;19925;-73
2023/12/10 01:21:02;;;;;;;;;;;7.20;92.80;;;;;;4990141;28;19932;-76
2023/12/10 01:23:35;;;;;;;;;;;7.20;92.80;;;;;;4991506;28;20391;-72
2023/12/10 01:26:17;;;;;;;;;;;7.10;92.70;;;;;;4990030;28;20017;-73
2023/12/10 01:28:52;;;;;;;;;;;7.10;92.70;;;;;;5004601;28;20004;-62
2023/12/10 01:31:26;;;;;;;;;;;7.10;92.70;;;;;;5005610;28;20368;-62
2023/12/10 01:33:59;;;;;;;;;;;7.10;92.70;;;;;;5010263;28;20399;-63
2023/12/10 01:36:32;;;;;;;;;;;7.10;92.70;;;;;;5009411;28;19979;-63
2023/12/10 01:39:05;;;;;;;;;;;7.20;92.70;;;;;;5008296;28;20299;-63
2023/12/10 01:41:39;;;;;;;;;;;7.20;92.70;;;;;;5008610;28;19971;-62
2023/12/10 01:44:17;;;;;;;;;;;7.20;92.70;;;;;;5008387;28;19934;-63
2023/12/10 01:46:50;;;;;;;;;;;7.20;92.60;;;;;;5006511;28;20402;-63
2023/12/10 01:49:25;;;;;;;;;;;7.20;92.50;;;;;;5007150;28;19929;-62
2023/12/10 01:51:58;;;;;;;;;;;7.20;92.40;;;;;;5008002;28;19926;-63
2023/12/10 01:54:31;;;;;;;;;;;7.20;92.40;;;;;;5009581;28;20368;-62
2023/12/10 01:57:05;;;;;;;;;;;7.20;92.40;;;;;;5008912;28;20019;-63
2023/12/10 01:59:40;;;;;;;;;;;7.10;92.30;;;;;;5008511;28;20406;-62
2023/12/10 02:02:13;;;;;;;;;;;7.10;92.30;;;;;;5008896;28;19932;-62
2023/12/10 02:04:53;;;;;;;;;;;7.10;92.30;;;;;;5008495;28;19926;-64
2023/12/10 02:07:27;;;;;;;;;;;7.10;92.20;;;;;;5005237;28;19965;-63
2023/12/10 02:10:01;;;;;;;;;;;7.10;92.20;;;;;;5006130;28;19932;-63
2023/12/10 02:12:38;;;;;;;;;;;7.10;92.20;;;;;;5009167;28;20323;-62
2023/12/10 02:15:16;;;;;;;;;;;7.10;92.20;;;;;;5005820;28;19934;-63
2023/12/10 02:17:50;;;;;;;;;;;7.10;92.20;;;;;;5010119;28;20046;-62
2023/12/10 02:20:23;;;;;;;;;;;7.10;92.20;;;;;;5011366;28;19929;-63
2023/12/10 02:22:59;;;;;;;;;;;7.10;92.30;;;;;;5013288;28;19933;-63
2023/12/10 02:25:34;;;;;;;;;;;7.00;92.20;;;;;;5012051;28;19930;-62
2023/12/10 02:28:08;;;;;;;;;;;7.00;92.20;;;;;;5011914;28;20008;-63
2023/12/10 02:30:41;;;;;;;;;;;7.00;92.20;;;;;;5009501;28;19940;-62
2023/12/10 02:33:14;;;;;;;;;;;7.00;92.20;;;;;;5007317;28;19929;-63
2023/12/10 02:35:47;;;;;;;;;;;7.10;92.10;;;;;;4991751;28;19936;-61
2023/12/10 02:38:21;;;;;;;;;;;7.10;92.00;;;;;;4989959;28;20514;-61
2023/12/10 02:40:56;;;;;;;;;;;7.10;92.00;;;;;;5012317;28;19956;-60
2023/12/10 02:43:29;;;;;;;;;;;7.10;92.00;;;;;;5011425;28;19999;-61
2023/12/10 02:46:02;;;;;;;;;;;7.10;92.00;;;;;;5012038;28;19929;-61
2023/12/10 02:48:35;;;;;;;;;;;7.10;92.00;;;;;;5011564;28;20504;-61
2023/12/10 02:51:08;;;;;;;;;;;7.10;92.00;;;;;;5011224;28;19933;-62
2023/12/10 02:53:41;;;;;;;;;;;7.00;92.00;;;;;;5010692;28;19970;-61
2023/12/10 02:56:16;;;;;;;;;;;7.10;91.90;;;;;;5011442;28;19937;-61
2023/12/10 02:58:49;;;;;;;;;;;7.00;92.00;;;;;;5011548;28;19925;-60
2023/12/10 03:01:22;;;;;;;;;;;7.00;92.00;;;;;;5011557;28;19926;-60
2023/12/10 03:03:55;;;;;;;;;;;7.00;92.00;;;;;;5012803;28;20024;-61
2023/12/10 03:06:35;;;;;;;;;;;7.00;92.00;;;;;;5011299;28;19984;-60
2023/12/10 03:09:09;;;;;;;;;;;7.00;92.00;;;;;;5010929;28;19965;-61
2023/12/10 03:11:49;;;;;;;;;;;7.00;92.00;;;;;;5010285;28;19981;-62
2023/12/10 03:14:22;;;;;;;;;;;7.00;92.00;;;;;;5012585;28;20372;-60
2023/12/10 03:16:55;;;;;;;;;;;7.00;91.90;;;;;;5007004;28;19930;-61
2023/12/10 03:19:28;;;;;;;;;;;7.00;91.90;;;;;;4991233;28;19933;-60
2023/12/10 03:22:04;;;;;;;;;;;7.00;91.90;;;;;;4990259;28;19929;-60
2023/12/10 03:24:37;;;;;;;;;;;7.10;91.70;;;;;;4992327;28;19941;-61
2023/12/10 03:27:12;;;;;;;;;;;7.10;91.60;;;;;;4988629;28;20480;-61
2023/12/10 03:29:45;;;;;;;;;;;7.10;91.50;;;;;;4990203;28;19972;-61
2023/12/10 03:32:18;;;;;;;;;;;7.20;91.40;;;;;;4991297;28;19934;-60
2023/12/10 03:34:51;;;;;;;;;;;7.20;91.40;;;;;;4987767;28;20655;-60
2023/12/10 03:37:27;;;;;;;;;;;7.20;91.40;;;;;;4990888;28;20453;-60
2023/12/10 03:40:03;;;;;;;;;;;7.20;91.30;;;;;;4991737;28;19973;-60
2023/12/10 03:42:38;;;;;;;;;;;7.20;91.30;;;;;;4989745;28;19930;-61
2023/12/10 03:45:11;;;;;;;;;;;7.20;91.40;;;;;;4993890;28;19926;-61
2023/12/10 03:47:46;;;;;;;;;;;7.20;91.40;;;;;;5009171;28;19930;-61
2023/12/10 03:50:19;;;;;;;;;;;7.10;91.50;;;;;;5006082;28;19968;-66
2023/12/10 03:52:52;;;;;;;;;;;7.10;91.50;;;;;;5008014;28;19933;-67
2023/12/10 03:55:19;;;;;;;;;;;7.00;91.50;;;;;;5008171;28;19948;-67
2023/12/10 03:57:54;;;;;;;;;;;7.00;91.50;;;;;;5007896;28;19926;-65
2023/12/10 04:00:27;;;;;;;;;;;6.90;91.50;;;;;;4998446;28;20505;-67
2023/12/10 04:03:00;;;;;;;;;;;6.90;91.50;;;;;;5007099;28;20028;-66
2023/12/10 04:05:33;;;;;;;;;;;6.90;91.40;;;;;;5008484;28;20546;-67
2023/12/10 04:08:06;;;;;;;;;;;6.90;91.40;;;;;;5006862;28;19933;-67
2023/12/10 04:10:39;;;;;;;;;;;6.80;91.40;;;;;;5006536;28;19940;-68
2023/12/10 04:13:15;;;;;;;;;;;6.80;91.30;;;;;;5007811;28;19929;-68
2023/12/10 04:15:48;;;;;;;;;;;6.80;91.30;;;;;;5006681;28;20351;-67
2023/12/10 04:18:21;;;;;;;;;;;6.80;91.40;;;;;;4997348;28;20454;-66
2023/12/10 04:20:54;;;;;;;;;;;6.80;91.40;;;;;;5006046;28;19953;-66
2023/12/10 04:23:28;;;;;;;;;;;6.80;91.30;;;;;;5010603;28;19926;-67
2023/12/10 04:26:01;;;;;;;;;;;6.70;91.30;;;;;;5009738;28;19926;-66
2023/12/10 04:28:38;;;;;;;;;;;6.70;91.30;;;;;;5012342;28;19933;-68
2023/12/10 04:31:12;;;;;;;;;;;6.70;91.30;;;;;;5011054;28;20070;-67
2023/12/10 04:33:45;;;;;;;;;;;6.80;91.40;;;;;;5019736;28;19948;-68
2023/12/10 04:36:18;;;;;;;;;;;6.70;91.40;;;;;;5026138;28;19933;-66
2023/12/10 04:38:51;;;;;;;;;;;6.80;91.40;;;;;;5010886;28;19929;-68
2023/12/10 04:41:24;;;;;;;;;;;6.80;91.50;;;;;;4996492;28;20772;-68
2023/12/10 04:43:59;;;;;;;;;;;6.80;91.60;;;;;;4988093;28;20796;-66
2023/12/10 04:46:32;;;;;;;;;;;6.80;91.60;;;;;;4989386;28;20000;-66
2023/12/10 04:49:05;;;;;;;;;;;6.80;91.60;;;;;;5010069;28;20368;-68
2023/12/10 04:51:32;;;;;;;;;;;6.90;91.60;;;;;;5009625;28;19932;-66
2023/12/10 04:54:05;;;;;;;;;;;6.90;91.60;;;;;;5010241;28;19925;-67
2023/12/10 04:56:39;;;;;;;;;;;6.90;91.50;;;;;;5008799;28;19937;-67
2023/12/10 04:59:07;;;;;;;;;;;6.90;91.40;;;;;;5009154;28;19929;-67
2023/12/10 05:01:40;;;;;;;;;;;7.00;91.30;;;;;;4998958;28;20455;-67
2023/12/10 05:04:13;;;;;;;;;;;7.00;91.10;;;;;;5010391;28;20459;-66
2023/12/10 05:06:46;;;;;;;;;;;7.00;91.00;;;;;;5010137;28;19930;-66
2023/12/10 05:09:20;;;;;;;;;;;7.00;91.00;;;;;;5010123;28;19929;-68
2023/12/10 05:11:53;;;;;;;;;;;7.10;90.90;;;;;;5009840;28;19933;-68
2023/12/10 05:14:28;;;;;;;;;;;7.00;90.80;;;;;;5009616;28;19934;-67
2023/12/10 05:17:01;;;;;;;;;;;7.00;90.80;;;;;;5007827;28;20007;-66
2023/12/10 05:19:34;;;;;;;;;;;7.10;90.80;;;;;;5008312;28;19933;-69
2023/12/10 05:22:07;;;;;;;;;;;7.00;90.70;;;;;;5009805;28;19987;-67
2023/12/10 05:24:43;;;;;;;;;;;7.10;90.50;;;;;;5009304;28;20032;-67
2023/12/10 05:27:16;;;;;;;;;;;7.10;90.50;;;;;;5008984;28;20443;-67
2023/12/10 05:29:51;;;;;;;;;;;7.10;90.50;;;;;;5000234;28;20026;-66
2023/12/10 05:32:24;;;;;;;;;;;7.10;90.50;;;;;;5008827;28;19983;-67
2023/12/10 05:34:57;;;;;;;;;;;7.10;90.50;;;;;;5008433;28;20451;-67
2023/12/10 05:37:31;;;;;;;;;;;7.10;90.50;;;;;;5008950;28;19925;-67
2023/12/10 05:40:05;;;;;;;;;;;7.10;90.60;;;;;;5009841;28;20012;-67
2023/12/10 05:42:38;;;;;;;;;;;7.10;90.60;;;;;;5009133;28;19936;-66
2023/12/10 05:45:13;;;;;;;;;;;7.10;90.60;;;;;;5008728;28;20039;-66
2023/12/10 05:47:47;;;;;;;;;;;7.10;90.70;;;;;;5008990;28;19929;-67
2023/12/10 05:50:19;;;;;;;;;;;7.10;90.70;;;;;;5009435;28;19930;-66
2023/12/10 05:52:52;;;;;;;;;;;7.10;90.60;;;;;;5005907;28;20599;-67
2023/12/10 05:55:25;;;;;;;;;;;7.10;90.70;;;;;;5009249;28;20384;-67
2023/12/10 05:57:58;;;;;;;;;;;7.10;90.60;;;;;;5003206;28;19945;-67
2023/12/10 06:00:33;;;;;;;;;;;7.10;90.50;;;;;;5010141;28;19929;-66
2023/12/10 06:03:06;;;;;;;;;;;7.10;90.50;;;;;;5008500;28;19925;-67
2023/12/10 06:05:39;;;;;;;;;;;7.10;90.40;;;;;;5009650;28;20304;-67
2023/12/10 06:08:12;;;;;;;;;;;7.10;90.40;;;;;;5009374;28;20008;-67
2023/12/10 06:10:45;;;;;;;;;;;7.10;90.30;;;;;;5010102;28;19929;-72
2023/12/10 06:13:18;;;;;;;;;;;7.10;90.10;;;;;;5008809;28;19929;-70
2023/12/10 06:15:54;;;;;;;;;;;7.10;90.20;;;;;;5010074;28;19931;-70
2023/12/10 06:18:27;;;;;;;;;;;7.10;90.10;;;;;;5009100;28;20406;-71
2023/12/10 06:21:00;;;;;;;;;;;7.20;90.00;;;;;;5009425;28;19932;-71
2023/12/10 06:23:27;;;;;;;;;;;7.20;90.00;;;;;;5009525;28;19926;-71
2023/12/10 06:26:00;;;;;;;;;;;7.20;90.00;;;;;;5007154;28;19926;-71
2023/12/10 06:28:33;;;;;;;;;;;7.20;89.90;;;;;;5006335;28;19936;-70
2023/12/10 06:31:08;;;;;;;;;;;7.20;89.90;;;;;;4991494;28;19926;-71
2023/12/10 06:33:42;;;;;;;;;;;7.20;89.90;;;;;;4986512;28;20048;-71
2023/12/10 06:36:15;;;;;;;;;;;7.20;89.90;;;;;;4987703;28;19956;-72
2023/12/10 06:38:47;;;;;;;;;;;7.20;89.90;;;;;;5005637;28;19941;-70
2023/12/10 06:41:20;;;;;;;;;;;7.20;89.80;;;;;;5005764;28;20019;-71
2023/12/10 06:43:53;;;;;;;;;;;7.20;89.80;;;;;;5004922;28;19934;-71
2023/12/10 06:46:28;;;;;;;;;;;7.20;89.80;;;;;;5006479;28;19940;-71
2023/12/10 06:49:01;;;;;;;;;;;7.20;89.70;;;;;;5004581;28;20268;-71
2023/12/10 06:51:34;;;;;;;;;;;7.30;89.70;;;;;;5004680;28;19925;-71
2023/12/10 06:54:09;;;;;;;;;;;7.20;89.70;;;;;;5009180;28;19926;-72
2023/12/10 06:56:42;;;;;;;;;;;7.20;89.70;;;;;;5010231;28;19925;-72
2023/12/10 06:59:15;;;;;;;;;;;7.20;89.60;;;;;;5008067;28;19925;-72
2023/12/10 07:01:50;;;;;;;;;;;7.30;89.70;;;;;;5010585;28;19925;-71
2023/12/10 07:04:24;;;;;;;;;;;7.30;89.60;;;;;;5009293;28;20391;-71
2023/12/10 07:06:57;;;;;;;;;;;7.30;89.70;;;;;;5010574;28;20007;-71
2023/12/10 07:09:36;;;;;;;;;;;7.30;89.70;;;;;;5009325;28;19969;-71
2023/12/10 07:12:10;;;;;;;;;;;7.20;89.70;;;;;;5009498;28;19933;-71
2023/12/10 07:14:43;;;;;;;;;;;7.20;89.70;;;;;;5007684;28;19926;-71
2023/12/10 07:17:18;;;;;;;;;;;7.30;89.70;;;;;;5008205;28;19929;-71
2023/12/10 07:19:52;;;;;;;;;;;7.20;89.70;;;;;;5005623;28;19932;-77
2023/12/10 07:22:25;;;;;;;;;;;7.30;89.60;;;;;;4997921;28;19926;-77
2023/12/10 07:24:58;;;;;;;;;;;7.30;89.50;;;;;;5010244;28;20024;-78
2023/12/10 07:27:32;;;;;;;;;;;7.30;89.40;;;;;;5007980;28;19926;-79
2023/12/10 07:30:07;;;;;;;;;;;7.30;89.30;;;;;;5008562;28;19933;-77
2023/12/10 07:32:42;;;;;;;;;;;7.30;89.30;;;;;;5006711;28;20020;-76
2023/12/10 07:35:15;;;;;;;;;;;7.30;89.30;;;;;;5007518;28;20320;-79
2023/12/10 07:37:48;;;;;;;;;;;7.40;89.30;;;;;;5009230;28;19948;-79
2023/12/10 07:40:22;;;;;;;;;;;7.40;89.20;;;;;;5010268;28;19925;-76
2023/12/10 07:42:48;;;;;;;;;;;7.30;89.30;;;;;;5008091;28;19925;-77
2023/12/10 07:45:21;;;;;;;;;;;7.30;89.20;;;;;;5029582;28;19925;-78
2023/12/10 07:47:56;;;;;;;;;;;7.40;89.20;;;;;;5008800;28;19932;-77
2023/12/10 07:50:29;;;;;;;;;;;7.40;89.20;;;;;;5007733;28;19925;-79
2023/12/10 07:52:56;;;;;;;;;;;7.40;89.20;;;;;;5011321;28;19930;-76
2023/12/10 07:55:29;;;;;;;;;;;7.40;89.20;;;;;;5009076;28;19949;-76
2023/12/10 07:58:03;;;;;;;;;;;7.40;89.20;;;;;;5005750;28;19929;-77
2023/12/10 08:00:38;;;;;;;;;;;7.40;89.30;;;;;;5006624;28;19933;-78
2023/12/10 08:03:13;;;;;;;;;;;7.40;89.40;;;;;;5000619;28;20343;-77
2023/12/10 08:05:47;;;;;;;;;;;7.40;89.50;;;;;;5008058;28;20281;-76
2023/12/10 08:08:19;;;;;;;;;;;7.40;89.50;;;;;;5007497;28;20361;-77
2023/12/10 08:10:52;;;;;;;;;;;7.40;89.70;;;;;;5005316;28;19956;-77
2023/12/10 08:13:25;;;;;;;;;;;7.40;89.80;;;;;;5006263;28;19948;-77
2023/12/10 08:15:58;;;;;;;;;;;7.40;89.80;;;;;;5006539;28;19930;-77
2023/12/10 08:18:33;;;;;;;;;;;7.40;89.80;;;;;;5005440;28;19937;-77
2023/12/10 08:21:08;;;;;;;;;;;7.40;89.90;;;;;;4985784;28;19926;-76
2023/12/10 08:23:42;;;;;;;;;;;7.40;89.80;;;;;;4985182;28;20052;-75
2023/12/10 08:26:15;;;;;;;;;;;7.50;89.90;;;;;;4985988;28;19984;-76
2023/12/10 08:28:47;;;;;;;;;;;7.50;89.80;;;;;;4986777;28;20055;-59
2023/12/10 08:31:20;;;;;;;;;;;7.50;89.70;;;;;;4986033;28;19976;-60
2023/12/10 08:33:55;;;;;;;;;;;7.60;89.70;;;;;;5005129;28;19995;-61
2023/12/10 08:36:28;;;;;;;;;;;7.50;89.70;;;;;;5004523;28;19987;-59
2023/12/10 08:39:02;;;;;;;;;;;7.60;89.60;;;;;;5005095;28;19980;-61
2023/12/10 08:41:42;;;;;;;;;;;7.60;89.60;;;;;;4997655;28;19933;-60
2023/12/10 08:47:51;;;;;;;;;;;7.60;89.60;;;;;;4996875;28;20024;-60
2023/12/10 08:50:26;;;;;;;;;;;7.60;89.50;;;;;;5005950;28;19999;-60
2023/12/10 08:52:59;;;;;;;;;;;7.60;89.40;;;;;;5004797;28;19930;-59
2023/12/10 08:55:32;;;;;;;;;;;7.60;89.30;;;;;;5005886;28;20419;-59
2023/12/10 08:58:05;;;;;;;;;;;7.70;89.20;;;;;;5005011;28;19929;-60
2023/12/10 09:00:39;;;;;;;;;;;7.70;89.00;;;;;;5005880;28;19965;-61
2023/12/10 09:03:13;;;;;;;;;;;7.70;88.80;;;;;;5004863;28;20412;-60
2023/12/10 09:05:47;;;;;;;;;;;7.80;88.90;;;;;;5004761;28;20277;-59
2023/12/10 09:08:20;;;;;;;;;;;7.80;88.80;;;;;;5005088;28;19929;-60
2023/12/10 09:10:54;;;;;;;;;;;7.80;88.60;;;;;;4985280;28;20276;-60
2023/12/10 09:13:27;;;;;;;;;;;7.90;88.70;;;;;;4984595;28;19954;-59
2023/12/10 09:16:00;;;;;;;;;;;8.00;88.60;;;;;;4985851;28;20395;-60
2023/12/10 09:18:33;;;;;;;;;;;7.90;88.50;;;;;;4986398;28;19947;-60
2023/12/10 09:21:08;;;;;;;;;;;8.00;88.40;;;;;;4983637;28;19926;-59
2023/12/10 09:23:43;;;;;;;;;;;8.00;88.20;;;;;;4983840;28;20391;-60
2023/12/10 09:26:17;;;;;;;;;;;8.00;87.90;;;;;;5001366;28;19926;-60
2023/12/10 09:28:50;;;;;;;;;;;8.10;87.90;;;;;;5007746;28;20037;-60
2023/12/10 09:31:22;;;;;;;;;;;8.10;87.60;;;;;;5006069;28;19956;-61
2023/12/10 09:33:56;;;;;;;;;;;8.20;87.30;;;;;;5008480;28;19932;-60
2023/12/10 09:36:30;;;;;;;;;;;8.20;87.00;;;;;;5007749;28;19965;-60
2023/12/10 09:39:04;;;;;;;;;;;8.20;86.80;;;;;;5007076;28;20016;-60
2023/12/10 09:41:37;;;;;;;;;;;8.20;86.70;;;;;;4988684;28;20433;-62
2023/12/10 09:44:10;;;;;;;;;;;8.20;86.40;;;;;;4989080;28;20392;-61
2023/12/10 09:46:50;;;;;;;;;;;8.20;86.40;;;;;;4985819;28;20388;-61
2023/12/10 09:49:25;;;;;;;;;;;8.20;86.20;;;;;;4987545;28;19925;-62
2023/12/10 09:52:00;;;;;;;;;;;8.30;86.00;;;;;;4987876;28;19926;-61
2023/12/10 09:54:34;;;;;;;;;;;8.30;86.00;;;;;;4986656;28;19965;-61
2023/12/10 09:57:00;;;;;;;;;;;8.30;86.00;;;;;;4987607;28;20219;-61
2023/12/10 09:59:35;;;;;;;;;;;8.30;85.70;;;;;;4986859;28;19929;-61
2023/12/10 10:02:10;;;;;;;;;;;8.40;85.60;;;;;;4986016;28;20370;-60
2023/12/10 10:04:44;;;;;;;;;;;8.40;85.50;;;;;;4985636;28;20377;-60
2023/12/10 10:07:18;;;;;;;;;;;8.50;85.40;;;;;;4988945;28;19929;-62
2023/12/10 10:09:52;;;;;;;;;;;8.40;85.20;;;;;;5007099;28;19934;-60
2023/12/10 10:12:28;;;;;;;;;;;8.40;85.30;;;;;;5005577;28;19933;-62
2023/12/10 10:15:01;;;;;;;;;;;8.50;85.20;;;;;;5007875;28;19933;-61
2023/12/10 10:17:35;;;;;;;;;;;8.50;84.90;;;;;;5005657;28;19957;-62
2023/12/10 10:20:09;;;;;;;;;;;8.50;85.10;;;;;;5008091;28;20396;-61
2023/12/10 10:22:46;;;;;;;;;;;8.50;84.90;;;;;;5006424;28;19956;-62
2023/12/10 10:25:20;;;;;;;;;;;8.60;84.60;;;;;;5007471;28;19925;-61
2023/12/10 10:27:53;;;;;;;;;;;8.60;84.40;;;;;;5006532;28;20048;-61
2023/12/10 10:30:26;;;;;;;;;;;8.60;84.20;;;;;;4993108;28;19965;-60
2023/12/10 10:32:59;;;;;;;;;;;8.60;84.30;;;;;;5002627;28;19929;-60
2023/12/10 10:35:32;;;;;;;;;;;8.70;84.00;;;;;;5006987;28;19930;-60
2023/12/10 10:38:07;;;;;;;;;;;8.70;83.80;;;;;;5004837;28;19933;-62
2023/12/10 10:40:41;;;;;;;;;;;8.80;83.90;;;;;;5006702;28;19937;-60
2023/12/10 10:43:14;;;;;;;;;;;8.80;83.80;;;;;;5008071;28;19934;-60
2023/12/10 10:46:12;;;;;;;;;;;8.80;83.80;;;;;;5005981;28;19932;-61
2023/12/10 10:48:51;;;;;;;;;;;8.80;83.60;;;;;;5006113;28;20023;-63
2023/12/10 10:51:26;;;;;;;;;;;8.90;83.30;;;;;;5006071;28;19933;-63
2023/12/10 10:54:04;;;;;;;;;;;8.90;83.10;;;;;;5006397;28;19930;-64
2023/12/10 10:56:37;;;;;;;;;;;9.00;83.00;;;;;;5005582;28;19949;-63
2023/12/10 10:59:25;;;;;;;;;;;9.00;82.90;;;;;;5007349;28;19991;-63
2023/12/10 11:01:59;;;;;;;;;;;9.00;82.90;;;;;;4991655;28;20032;-62
2023/12/10 11:04:32;;;;;;;;;;;9.10;82.70;;;;;;5004252;28;19925;-62
2023/12/10 11:07:06;;;;;;;;;;;9.20;82.70;;;;;;5006412;28;19929;-62
2023/12/10 11:12:59;;;;;;;;;;;9.20;82.70;;;;;;5034273;28;19925;-62
2023/12/10 11:15:32;;;;;;;;;;;9.20;82.50;;;;;;5034313;28;19940;-63
2023/12/10 11:18:05;;;;;;;;;;;9.20;82.60;;;;;;5035432;28;19939;-62
2023/12/10 11:20:40;;;;;;;;;;;9.30;82.60;;;;;;5033717;28;19940;-62
2023/12/10 11:23:14;;;;;;;;;;;9.30;82.40;;;;;;5033749;28;19940;-63
2023/12/10 11:25:51;;;;;;;;;;;9.30;82.40;;;;;;5025836;28;20449;-63
2023/12/10 11:28:26;;;;;;;;;;;9.40;82.30;;;;;;5034110;28;19965;-63
2023/12/10 11:30:59;;;;;;;;;;;9.40;82.10;;;;;;5034519;28;20379;-63
2023/12/10 11:33:34;;;;;;;;;;;9.40;82.00;;;;;;5035471;28;20380;-62
2023/12/10 11:36:08;;;;;;;;;;;9.40;81.90;;;;;;5036082;28;19939;-63
2023/12/10 11:38:45;;;;;;;;;;;9.50;81.80;;;;;;5034416;28;19932;-62
2023/12/10 11:41:18;;;;;;;;;;;9.60;81.70;;;;;;5035915;28;20016;-62
2023/12/10 11:43:53;;;;;;;;;;;9.60;81.50;;;;;;5034928;28;20380;-62
2023/12/10 11:46:27;;;;;;;;;;;9.70;81.40;;;;;;5034329;28;19968;-63
2023/12/10 11:48:59;;;;;;;;;;;9.70;81.40;;;;;;5033774;28;20821;-62
2023/12/10 11:51:33;;;;;;;;;;;9.70;81.30;;;;;;5033799;28;20470;-62
2023/12/10 11:54:07;;;;;;;;;;;9.70;81.30;;;;;;5033898;28;20402;-63
2023/12/10 11:56:42;;;;;;;;;;;9.70;81.40;;;;;;5031391;28;19925;-62
2023/12/10 11:59:17;;;;;;;;;;;9.70;81.40;;;;;;5032816;28;19929;-74
2023/12/10 12:01:53;;;;;;;;;;;9.70;81.40;;;;;;5032449;28;20048;-74
2023/12/10 12:04:27;;;;;;;;;;;9.70;81.10;;;;;;5027193;28;19925;-76
2023/12/10 12:07:00;;;;;;;;;;;9.70;81.20;;;;;;5032006;28;19925;-73
2023/12/10 12:09:33;;;;;;;;;;;9.70;81.40;;;;;;5034173;28;19925;-74
2023/12/10 12:12:09;;;;;;;;;;;9.70;81.50;;;;;;5067403;28;19933;-76
2023/12/10 12:14:44;;;;;;;;;;;9.70;81.50;;;;;;5076699;28;19946;-74
2023/12/10 12:17:18;;;;;;;;;;;9.80;81.40;;;;;;5077492;28;20018;-74
2023/12/10 12:19:52;;;;;;;;;;;9.80;81.30;;;;;;5077202;28;19966;-75
2023/12/10 12:22:25;;;;;;;;;;;9.80;81.20;;;;;;5071138;28;19925;-75
2023/12/10 12:24:58;;;;;;;;;;;9.80;80.90;;;;;;5062622;28;19954;-74
2023/12/10 12:27:31;;;;;;;;;;;9.90;81.00;;;;;;5061838;28;19935;-74
2023/12/10 12:30:09;;;;;;;;;;;9.90;81.10;;;;;;5063655;28;19948;-74
2023/12/10 12:32:45;;;;;;;;;;;9.80;81.00;;;;;;5062623;28;19924;-75
2023/12/10 12:35:18;;;;;;;;;;;9.80;81.00;;;;;;5051864;28;19935;-73
2023/12/10 12:37:51;;;;;;;;;;;9.90;81.10;;;;;;5063018;28;19925;-72
2023/12/10 12:40:24;;;;;;;;;;;9.90;80.80;;;;;;5061546;28;20013;-75
2023/12/10 12:43:00;;;;;;;;;;;10.00;81.00;;;;;;5064009;28;20719;-74
2023/12/10 12:45:35;;;;;;;;;;;10.10;81.10;;;;;;5063520;28;19924;-73
2023/12/10 12:48:08;;;;;;;;;;;10.10;81.00;;;;;;5062383;28;20390;-76
2023/12/10 12:50:41;;;;;;;;;;;10.10;80.70;;;;;;5061699;28;20318;-74
2023/12/10 12:53:14;;;;;;;;;;;10.10;80.60;;;;;;5060300;28;19932;-75
2023/12/10 12:55:47;;;;;;;;;;;10.10;80.30;;;;;;5060335;28;19928;-74
2023/12/10 14:10:02;;;;;;;;;;;9.70;81.70;;;;;;5059983;28;19978;-64
2023/12/10 14:12:35;;;;;;;;;;;9.70;81.70;;;;;;5058777;28;19928;-64
2023/12/10 14:15:09;;;;;;;;;;;9.70;81.90;;;;;;5061364;28;19933;-64
2023/12/10 14:17:45;;;;;;;;;;;9.70;81.90;;;;;;5059338;28;19947;-63
2023/12/10 14:20:18;;;;;;;;;;;9.70;82.00;;;;;;5061651;28;19976;-69
2023/12/10 14:22:51;;;;;;;;;;;9.70;82.10;;;;;;5059135;28;19928;-69
2023/12/10 14:25:26;;;;;;;;;;;9.60;82.20;;;;;;5059896;28;19951;-69
2023/12/10 14:27:59;;;;;;;;;;;9.60;82.20;;;;;;5061219;28;19930;-69
2023/12/10 14:30:32;;;;;;;;;;;9.60;82.20;;;;;;5048949;28;20023;-68
2023/12/10 14:33:05;;;;;;;;;;;9.60;82.20;;;;;;5059961;28;19929;-70
2023/12/10 14:35:38;;;;;;;;;;;9.60;82.30;;;;;;5059102;28;20260;-69
2023/12/10 14:38:11;;;;;;;;;;;9.60;82.30;;;;;;5060772;28;19932;-70
2023/12/10 14:40:40;;;;;;;;;;;9.60;82.40;;;;;;5059774;28;20010;-69
2023/12/10 14:43:13;;;;;;;;;;;9.50;82.40;;;;;;5060538;28;19932;-69
2023/12/10 14:45:45;;;;;;;;;;;9.60;82.50;;;;;;5061069;28;19974;-69
2023/12/10 14:48:18;;;;;;;;;;;9.60;82.40;;;;;;5059773;28;19940;-69
2023/12/10 14:50:51;;;;;;;;;;;9.60;82.40;;;;;;5060438;28;19932;-69
2023/12/10 14:53:24;;;;;;;;;;;9.50;82.30;;;;;;5054156;28;19937;-70
2023/12/10 14:56:00;;;;;;;;;;;9.60;82.20;;;;;;5043587;28;21117;-69
2023/12/10 14:58:32;;;;;;;;;;;9.60;82.30;;;;;;5058998;28;20303;-70
2023/12/10 15:01:06;;;;;;;;;;;9.50;82.30;;;;;;5059816;28;20389;-69
2023/12/10 15:03:37;;;;;;;;;;;9.60;82.30;;;;;;5059791;28;19944;-70
2023/12/10 15:06:10;;;;;;;;;;;9.50;82.40;;;;;;5060373;28;19925;-68
2023/12/10 15:08:43;;;;;;;;;;;9.50;82.30;;;;;;5057629;28;19978;-70
2023/12/10 15:11:25;;;;;;;;;;;9.50;82.30;;;;;;5059898;28;19928;-70
2023/12/10 15:14:05;;;;;;;;;;;9.50;82.40;;;;;;5060679;28;19978;-70
2023/12/10 15:16:39;;;;;;;;;;;9.40;82.40;;;;;;5060034;28;19924;-70
2023/12/10 15:19:12;;;;;;;;;;;9.40;82.50;;;;;;5059065;28;20423;-70
2023/12/10 15:21:44;;;;;;;;;;;9.40;82.60;;;;;;5060568;28;19931;-70
2023/12/10 15:24:18;;;;;;;;;;;9.40;82.70;;;;;;5057298;28;20434;-70
2023/12/10 15:26:53;;;;;;;;;;;9.40;82.60;;;;;;5054521;28;19929;-67
2023/12/10 15:29:26;;;;;;;;;;;9.30;82.70;;;;;;5059370;28;19995;-65
2023/12/10 15:32:00;;;;;;;;;;;9.40;82.70;;;;;;5041899;28;19932;-63
2023/12/10 15:34:32;;;;;;;;;;;9.40;82.60;;;;;;5059498;28;19931;-64
2023/12/10 15:37:05;;;;;;;;;;;9.40;82.80;;;;;;5059113;28;20362;-62
2023/12/10 15:39:39;;;;;;;;;;;9.30;82.80;;;;;;5059390;28;19932;-62
2023/12/10 15:42:13;;;;;;;;;;;9.30;82.80;;;;;;5060745;28;19924;-65
2023/12/10 15:44:46;;;;;;;;;;;9.40;83.00;;;;;;5048153;28;19936;-64
2023/12/10 15:47:19;;;;;;;;;;;9.40;83.00;;;;;;5059160;28;19933;-64
2023/12/10 15:49:53;;;;;;;;;;;9.30;83.20;;;;;;5046322;28;20303;-64
2023/12/10 15:52:26;;;;;;;;;;;9.30;83.10;;;;;;5059682;28;19936;-64
2023/12/10 15:54:59;;;;;;;;;;;9.30;83.20;;;;;;5058951;28;19933;-63
2023/12/10 15:57:33;;;;;;;;;;;9.30;83.20;;;;;;5057239;28;19956;-63
2023/12/10 16:00:07;;;;;;;;;;;9.30;83.20;;;;;;5061852;28;21150;-64
2023/12/10 16:02:40;;;;;;;;;;;9.30;83.20;;;;;;5062168;28;20385;-64
2023/12/10 16:05:10;;;;;;;;;;;9.40;83.20;;;;;;5064167;28;19978;-64
2023/12/10 16:07:43;;;;;;;;;;;9.40;83.10;;;;;;5060530;28;21649;-63
2023/12/10 16:10:17;;;;;;;;;;;9.30;83.00;;;;;;5060978;28;19928;-65
2023/12/10 16:12:52;;;;;;;;;;;9.40;83.00;;;;;;5061210;28;19960;-64
2023/12/10 16:15:25;;;;;;;;;;;9.30;83.00;;;;;;5060689;28;20033;-63
2023/12/10 16:17:57;;;;;;;;;;;9.30;83.00;;;;;;5061861;28;19976;-63
2023/12/10 16:20:30;;;;;;;;;;;9.30;83.00;;;;;;5063208;28;19924;-64
2023/12/10 16:23:04;;;;;;;;;;;9.40;83.00;;;;;;5062636;28;19931;-66
2023/12/10 16:25:36;;;;;;;;;;;9.30;83.10;;;;;;5057560;28;19928;-62